createdAt,value
2023-01-05T00:00:58.751Z,11.99
2023-01-05T00:01:58.872Z,11.88
2023-01-05T00:02:58.663Z,11.97
2023-01-05T00:03:58.863Z,11.95
2023-01-05T00:04:58.650Z,11.97
2023-01-05T00:05:58.701Z,12.07
2023-01-05T00:06:58.700Z,12.07
2023-01-05T00:08:01.571Z,11.96
2023-01-05T00:08:58.712Z,11.95
2023-01-05T00:09:58.648Z,11.86
2023-01-05T00:10:58.650Z,11.91
2023-01-05T00:11:58.718Z,11.85
2023-01-05T00:12:58.655Z,11.89
2023-01-05T00:13:58.714Z,11.89
2023-01-05T00:14:58.655Z,11.8
2023-01-05T00:15:58.659Z,11.8
2023-01-05T00:16:58.826Z,11.74
2023-01-05T00:17:58.669Z,11.83
2023-01-05T00:19:01.517Z,11.68
2023-01-05T00:19:58.688Z,11.76
2023-01-05T00:20:58.700Z,11.71
2023-01-05T00:21:58.767Z,11.74
2023-01-05T00:22:58.732Z,11.68
2023-01-05T00:23:58.738Z,11.7
2023-01-05T00:24:58.727Z,11.73
2023-01-05T00:25:58.678Z,11.74
2023-01-05T00:26:58.697Z,11.78
2023-01-05T00:27:58.831Z,11.68
2023-01-05T00:28:58.753Z,11.78
2023-01-05T00:30:01.729Z,11.77
2023-01-05T00:30:58.700Z,11.74
2023-01-05T00:31:58.904Z,11.74
2023-01-05T00:32:58.712Z,11.68
2023-01-05T00:33:58.726Z,11.78
2023-01-05T00:34:58.687Z,11.74
2023-01-05T00:35:58.683Z,11.67
2023-01-05T00:36:58.708Z,11.7
2023-01-05T00:37:58.756Z,11.6
2023-01-05T00:38:58.872Z,11.65
2023-01-05T00:39:58.753Z,11.63
2023-01-05T00:41:01.746Z,11.62
2023-01-05T00:41:58.718Z,11.62
2023-01-05T00:42:58.704Z,11.67
2023-01-05T00:43:58.741Z,11.73
2023-01-05T00:44:58.733Z,11.65
2023-01-05T00:45:58.994Z,11.67
2023-01-05T00:46:58.711Z,11.62
2023-01-05T00:47:58.753Z,11.67
2023-01-05T00:48:58.768Z,11.68
2023-01-05T00:49:58.733Z,11.58
2023-01-05T00:50:58.732Z,11.65
2023-01-05T00:52:01.840Z,11.73
2023-01-05T00:52:58.742Z,11.56
2023-01-05T00:53:58.792Z,11.56
2023-01-05T00:54:58.732Z,11.53
2023-01-05T00:55:58.732Z,11.56
2023-01-05T00:56:58.822Z,11.6
2023-01-05T00:57:58.822Z,11.59
2023-01-05T00:58:58.766Z,11.44
2023-01-05T00:59:58.735Z,11.45
2023-01-05T01:00:58.864Z,11.45
2023-01-05T01:01:59.078Z,11.52
2023-01-05T01:03:01.901Z,11.48
2023-01-05T01:03:58.752Z,11.52
2023-01-05T01:04:58.749Z,11.4
2023-01-05T01:05:58.744Z,11.4
2023-01-05T01:06:58.767Z,11.51
2023-01-05T01:07:59.113Z,11.49
2023-01-05T01:08:58.776Z,11.43
2023-01-05T01:09:58.825Z,11.37
2023-01-05T01:10:58.771Z,11.35
2023-01-05T01:11:58.781Z,11.45
2023-01-05T01:12:58.930Z,11.4
2023-01-05T01:14:01.814Z,11.45
2023-01-05T01:14:58.744Z,11.41
2023-01-05T01:15:58.771Z,11.49
2023-01-05T01:16:59.008Z,11.44
2023-01-05T01:17:58.769Z,11.44
2023-01-05T01:19:07.238Z,11.45
2023-01-05T01:19:58.763Z,11.51
2023-01-05T01:20:58.790Z,11.44
2023-01-05T01:21:58.764Z,11.44
2023-01-05T01:22:58.802Z,11.4
2023-01-05T01:23:58.790Z,11.41
2023-01-05T01:24:58.800Z,11.49
2023-01-05T01:25:58.806Z,11.41
2023-01-05T01:26:58.809Z,11.43
2023-01-05T01:27:58.767Z,11.49
2023-01-05T01:28:58.822Z,11.45
2023-01-05T01:29:58.817Z,11.53
2023-01-05T01:30:58.945Z,11.37
2023-01-05T01:31:58.822Z,11.45
2023-01-05T01:32:58.783Z,11.52
2023-01-05T01:33:58.845Z,11.45
2023-01-05T01:34:58.792Z,11.55
2023-01-05T01:35:58.783Z,11.49
2023-01-05T01:36:58.961Z,11.48
2023-01-05T01:37:58.789Z,11.48
2023-01-05T01:38:58.796Z,11.51
2023-01-05T01:39:58.815Z,11.45
2023-01-05T01:40:58.991Z,11.45
2023-01-05T01:41:58.844Z,11.43
2023-01-05T01:42:58.794Z,11.52
2023-01-05T01:43:58.804Z,11.55
2023-01-05T01:44:58.825Z,11.55
2023-01-05T01:46:02.081Z,11.55
2023-01-05T01:46:58.810Z,11.63
2023-01-05T01:47:58.811Z,11.56
2023-01-05T01:48:58.867Z,11.68
2023-01-05T01:49:58.865Z,11.55
2023-01-05T01:51:02.133Z,11.53
2023-01-05T01:51:58.824Z,11.49
2023-01-05T01:52:58.815Z,11.55
2023-01-05T01:53:58.815Z,11.59
2023-01-05T01:54:58.832Z,11.58
2023-01-05T01:55:58.828Z,11.63
2023-01-05T01:57:01.606Z,11.59
2023-01-05T01:57:59.008Z,11.58
2023-01-05T01:58:58.828Z,11.52
2023-01-05T01:59:58.833Z,11.6
2023-01-05T02:00:58.965Z,11.56
2023-01-05T02:02:02.070Z,11.63
2023-01-05T02:02:58.921Z,11.67
2023-01-05T02:03:58.850Z,11.59
2023-01-05T02:04:58.941Z,11.6
2023-01-05T02:05:58.863Z,11.67
2023-01-05T02:06:58.844Z,11.6
2023-01-05T02:08:01.664Z,11.6
2023-01-05T02:08:58.856Z,11.73
2023-01-05T02:09:58.858Z,11.65
2023-01-05T02:10:58.999Z,11.7
2023-01-05T02:11:58.854Z,11.65
2023-01-05T02:13:02.131Z,11.65
2023-01-05T02:13:58.875Z,11.73
2023-01-05T02:14:58.866Z,11.7
2023-01-05T02:15:58.879Z,11.7
2023-01-05T02:16:59.113Z,11.7
2023-01-05T02:17:58.896Z,11.71
2023-01-05T02:18:58.885Z,11.71
2023-01-05T02:19:58.885Z,11.77
2023-01-05T02:20:58.871Z,11.76
2023-01-05T02:21:58.886Z,11.62
2023-01-05T02:22:58.871Z,11.73
2023-01-05T02:24:01.713Z,11.85
2023-01-05T02:24:58.896Z,11.78
2023-01-05T02:25:58.890Z,11.73
2023-01-05T02:26:58.869Z,11.81
2023-01-05T02:27:58.902Z,11.73
2023-01-05T02:28:58.962Z,11.8
2023-01-05T02:29:58.919Z,11.74
2023-01-05T02:30:59.113Z,11.68
2023-01-05T02:31:58.901Z,11.76
2023-01-05T02:32:58.949Z,11.81
2023-01-05T02:33:58.905Z,11.83
2023-01-05T02:35:01.886Z,11.85
2023-01-05T02:35:58.897Z,11.8
2023-01-05T02:36:58.895Z,11.8
2023-01-05T02:37:58.896Z,11.76
2023-01-05T02:38:58.882Z,11.83
2023-01-05T02:39:58.934Z,11.85
2023-01-05T02:40:58.898Z,11.91
2023-01-05T02:41:58.890Z,11.83
2023-01-05T02:42:58.930Z,11.86
2023-01-05T02:43:58.936Z,11.93
2023-01-05T02:44:58.981Z,11.83
2023-01-05T02:46:02.047Z,11.86
2023-01-05T02:46:58.941Z,11.89
2023-01-05T02:47:58.926Z,11.86
2023-01-05T02:48:58.980Z,11.88
2023-01-05T02:49:58.965Z,11.89
2023-01-05T02:50:58.904Z,11.86
2023-01-05T02:51:58.925Z,11.95
2023-01-05T02:52:58.953Z,11.93
2023-01-05T02:53:58.986Z,11.97
2023-01-05T02:54:58.948Z,12.05
2023-01-05T02:55:58.913Z,11.96
2023-01-05T02:57:02.063Z,11.97
2023-01-05T02:57:58.915Z,11.97
2023-01-05T02:58:58.952Z,11.99
2023-01-05T02:59:58.941Z,12.02
2023-01-05T03:00:59.193Z,12.05
2023-01-05T03:01:59.543Z,11.99
2023-01-05T03:02:59.919Z,12.1
2023-01-05T03:03:58.947Z,12.05
2023-01-05T03:04:58.999Z,12.12
2023-01-05T03:05:58.985Z,12.07
2023-01-05T03:06:59.256Z,12.17
2023-01-05T03:08:01.787Z,12.11
2023-01-05T03:08:59.001Z,12.12
2023-01-05T03:09:58.970Z,12.2
2023-01-05T03:10:58.952Z,12.17
2023-01-05T03:11:58.937Z,12.17
2023-01-05T03:12:58.940Z,12.23
2023-01-05T03:13:58.971Z,12.25
2023-01-05T03:14:58.989Z,12.25
2023-01-05T03:15:59.156Z,12.28
2023-01-05T03:16:58.994Z,12.23
2023-01-05T03:17:58.983Z,12.35
2023-01-05T03:19:01.766Z,12.26
2023-01-05T03:19:59.004Z,12.37
2023-01-05T03:20:59.004Z,12.29
2023-01-05T03:21:58.974Z,12.3
2023-01-05T03:22:59.002Z,12.37
2023-01-05T03:23:58.999Z,12.37
2023-01-05T03:24:58.998Z,12.36
2023-01-05T03:25:58.986Z,12.33
2023-01-05T03:26:58.980Z,12.4
2023-01-05T03:27:59.012Z,12.43
2023-01-05T03:28:59.021Z,12.47
2023-01-05T03:30:01.864Z,12.37
2023-01-05T03:30:59.079Z,12.43
2023-01-05T03:31:58.978Z,12.35
2023-01-05T03:32:59.035Z,12.43
2023-01-05T03:33:59.009Z,12.39
2023-01-05T03:34:59.851Z,12.4
2023-01-05T03:35:58.993Z,12.53
2023-01-05T03:36:59.017Z,12.58
2023-01-05T03:37:58.997Z,12.65
2023-01-05T03:38:59.016Z,12.55
2023-01-05T03:39:59.019Z,12.65
2023-01-05T03:41:01.861Z,12.62
2023-01-05T03:41:59.023Z,12.57
2023-01-05T03:42:58.993Z,12.57
2023-01-05T03:43:59.029Z,12.65
2023-01-05T03:44:59.049Z,12.63
2023-01-05T03:46:02.294Z,12.57
2023-01-05T03:46:59.011Z,12.51
2023-01-05T03:47:59.024Z,12.63
2023-01-05T03:48:59.065Z,12.58
2023-01-05T03:49:59.063Z,12.69
2023-01-05T03:50:59.040Z,12.62
2023-01-05T03:51:59.031Z,12.57
2023-01-05T03:52:59.085Z,12.65
2023-01-05T03:53:59.022Z,12.51
2023-01-05T03:54:59.062Z,12.5
2023-01-05T03:55:59.039Z,12.39
2023-01-05T03:56:59.043Z,12.43
2023-01-05T03:57:59.041Z,12.44
2023-01-05T03:58:59.014Z,12.44
2023-01-05T03:59:59.075Z,12.44
2023-01-05T04:00:59.042Z,12.43
2023-01-05T04:01:59.581Z,12.39
2023-01-05T04:02:59.523Z,12.4
2023-01-05T04:03:59.280Z,12.33
2023-01-05T04:04:59.136Z,12.43
2023-01-05T04:05:59.055Z,12.29
2023-01-05T04:06:59.033Z,12.39
2023-01-05T04:07:59.049Z,12.51
2023-01-05T04:08:59.127Z,12.39
2023-01-05T04:09:59.077Z,12.37
2023-01-05T04:10:59.061Z,12.4
2023-01-05T04:11:59.058Z,12.32
2023-01-05T04:13:02.249Z,12.39
2023-01-05T04:13:59.043Z,12.35
2023-01-05T04:14:59.062Z,12.33
2023-01-05T04:15:59.173Z,12.3
2023-01-05T04:16:59.053Z,12.33
2023-01-05T04:17:59.061Z,12.4
2023-01-05T04:18:59.103Z,12.36
2023-01-05T04:19:59.108Z,12.35
2023-01-05T04:20:59.125Z,12.33
2023-01-05T04:21:59.094Z,12.39
2023-01-05T04:22:59.074Z,12.33
2023-01-05T04:24:01.896Z,12.23
2023-01-05T04:24:59.113Z,12.39
2023-01-05T04:25:59.104Z,12.36
2023-01-05T04:26:59.107Z,12.26
2023-01-05T04:27:59.086Z,12.28
2023-01-05T04:29:02.333Z,12.35
2023-01-05T04:29:59.129Z,12.29
2023-01-05T04:30:59.281Z,12.29
2023-01-05T04:31:59.087Z,12.26
2023-01-05T04:32:59.092Z,12.33
2023-01-05T04:33:59.088Z,12.37
2023-01-05T04:35:00.118Z,12.18
2023-01-05T04:35:59.110Z,12.23
2023-01-05T04:36:59.161Z,12.28
2023-01-05T04:37:59.247Z,12.3
2023-01-05T04:38:59.098Z,12.2
2023-01-05T04:40:02.254Z,12.2
2023-01-05T04:40:59.121Z,12.17
2023-01-05T04:41:59.095Z,12.21
2023-01-05T04:42:59.235Z,12.21
2023-01-05T04:43:59.140Z,12.12
2023-01-05T04:44:59.103Z,12.15
2023-01-05T04:45:59.314Z,12.15
2023-01-05T04:46:59.279Z,12.21
2023-01-05T04:47:59.244Z,12.25
2023-01-05T04:48:59.107Z,12.2
2023-01-05T04:49:59.132Z,12.12
2023-01-05T04:51:02.165Z,12.15
2023-01-05T04:51:59.125Z,12.18
2023-01-05T04:52:59.155Z,12.18
2023-01-05T04:53:59.114Z,12.03
2023-01-05T04:54:59.306Z,12.1
2023-01-05T04:55:59.145Z,12.05
2023-01-05T04:56:59.131Z,11.97
2023-01-05T04:57:59.114Z,12.03
2023-01-05T04:58:59.147Z,12.02
2023-01-05T04:59:59.133Z,12.02
2023-01-05T05:00:59.130Z,11.93
2023-01-05T05:02:02.840Z,12
2023-01-05T05:02:59.607Z,11.91
2023-01-05T05:03:59.396Z,11.86
2023-01-05T05:04:59.127Z,11.85
2023-01-05T05:05:59.142Z,11.96
2023-01-05T05:06:59.137Z,11.83
2023-01-05T05:07:59.150Z,11.89
2023-01-05T05:08:59.230Z,11.88
2023-01-05T05:09:59.128Z,11.86
2023-01-05T05:10:59.196Z,11.85
2023-01-05T05:11:59.187Z,11.77
2023-01-05T05:13:01.967Z,11.76
2023-01-05T05:13:59.160Z,11.8
2023-01-05T05:14:59.183Z,11.7
2023-01-05T05:15:59.298Z,11.59
2023-01-05T05:16:59.223Z,11.67
2023-01-05T05:18:01.801Z,11.77
2023-01-05T05:18:59.166Z,11.73
2023-01-05T05:19:59.163Z,11.65
2023-01-05T05:20:59.198Z,11.73
2023-01-05T05:21:59.149Z,11.68
2023-01-05T05:22:59.216Z,11.7
2023-01-05T05:24:01.979Z,11.67
2023-01-05T05:24:59.368Z,11.63
2023-01-05T05:25:59.183Z,11.71
2023-01-05T05:26:59.174Z,11.62
2023-01-05T05:27:59.195Z,11.56
2023-01-05T05:28:59.181Z,11.55
2023-01-05T05:29:59.211Z,11.59
2023-01-05T05:30:59.444Z,11.53
2023-01-05T05:31:59.197Z,11.62
2023-01-05T05:32:59.192Z,11.55
2023-01-05T05:33:59.202Z,11.6
2023-01-05T05:35:01.969Z,11.6
2023-01-05T05:35:59.233Z,11.59
2023-01-05T05:36:59.213Z,11.59
2023-01-05T05:38:01.525Z,11.55
2023-01-05T05:38:59.214Z,11.49
2023-01-05T05:39:59.320Z,11.45
2023-01-05T05:40:59.308Z,11.45
2023-01-05T05:41:59.207Z,11.51
2023-01-05T05:42:59.208Z,11.43
2023-01-05T05:43:59.235Z,11.45
2023-01-05T05:44:59.197Z,11.38
2023-01-05T05:46:02.017Z,11.48
2023-01-05T05:46:59.358Z,11.35
2023-01-05T05:47:59.229Z,11.51
2023-01-05T05:48:59.231Z,11.49
2023-01-05T05:49:59.206Z,11.49
2023-01-05T05:50:59.310Z,11.49
2023-01-05T05:51:59.217Z,11.44
2023-01-05T05:52:59.226Z,11.43
2023-01-05T05:53:59.260Z,11.44
2023-01-05T05:54:59.269Z,11.44
2023-01-05T05:55:59.271Z,11.33
2023-01-05T05:57:02.064Z,11.41
2023-01-05T05:57:59.227Z,11.3
2023-01-05T05:59:05.641Z,11.33
2023-01-05T05:59:59.278Z,11.37
2023-01-05T06:00:59.264Z,11.35
2023-01-05T06:01:59.598Z,11.31
2023-01-05T06:02:59.903Z,11.35
2023-01-05T06:03:59.359Z,11.31
2023-01-05T06:04:59.293Z,11.38
2023-01-05T06:05:59.297Z,11.3
2023-01-05T06:06:59.275Z,11.33
2023-01-05T06:08:02.112Z,11.37
2023-01-05T06:08:59.262Z,11.44
2023-01-05T06:09:59.514Z,11.26
2023-01-05T06:10:59.416Z,11.23
2023-01-05T06:11:59.464Z,11.26
2023-01-05T06:13:02.082Z,11.26
2023-01-05T06:13:59.274Z,11.25
2023-01-05T06:14:59.252Z,11.22
2023-01-05T06:15:59.558Z,11.3
2023-01-05T06:16:59.260Z,11.3
2023-01-05T06:17:59.274Z,11.23
2023-01-05T06:18:59.265Z,11.19
2023-01-05T06:19:59.110Z,11.25
2023-01-05T06:21:05.911Z,11.26
2023-01-05T06:21:59.315Z,11.2
2023-01-05T06:22:59.276Z,11.22
2023-01-05T06:23:59.278Z,11.16
2023-01-05T06:24:59.275Z,11.26
2023-01-05T06:25:59.308Z,11.19
2023-01-05T06:26:59.277Z,11.25
2023-01-05T06:27:59.151Z,11.26
2023-01-05T06:28:59.293Z,11.33
2023-01-05T06:29:59.282Z,11.26
2023-01-05T06:30:59.303Z,11.2
2023-01-05T06:31:59.499Z,11.15
2023-01-05T06:32:59.276Z,11.25
2023-01-05T06:33:59.291Z,11.18
2023-01-05T06:34:59.292Z,11.27
2023-01-05T06:35:59.157Z,11.25
2023-01-05T06:37:05.005Z,11.16
2023-01-05T06:37:59.122Z,11.1
2023-01-05T06:38:59.286Z,11.1
2023-01-05T06:40:02.095Z,11.08
2023-01-05T06:40:59.387Z,11.18
2023-01-05T06:41:59.302Z,11.07
2023-01-05T06:42:59.291Z,11.15
2023-01-05T06:43:59.316Z,11.12
2023-01-05T06:44:59.344Z,11.07
2023-01-05T06:45:59.590Z,11.04
2023-01-05T06:46:59.135Z,11.04
2023-01-05T06:47:59.373Z,11.04
2023-01-05T06:48:59.317Z,11.02
2023-01-05T06:49:59.344Z,10.98
2023-01-05T06:51:02.330Z,10.94
2023-01-05T06:51:59.327Z,11.04
2023-01-05T06:52:59.338Z,10.94
2023-01-05T06:53:59.314Z,10.97
2023-01-05T06:54:59.308Z,11
2023-01-05T06:56:00.975Z,10.86
2023-01-05T06:56:59.330Z,10.92
2023-01-05T06:58:05.238Z,10.87
2023-01-05T06:58:59.161Z,10.86
2023-01-05T06:59:59.323Z,10.9
2023-01-05T07:00:59.372Z,10.9
2023-01-05T07:02:02.667Z,11
2023-01-05T07:02:59.002Z,10.95
2023-01-05T07:03:59.569Z,10.97
2023-01-05T07:04:59.324Z,10.97
2023-01-05T07:05:59.376Z,10.9
2023-01-05T07:07:02.212Z,10.89
2023-01-05T07:07:59.203Z,10.92
2023-01-05T07:08:59.189Z,10.89
2023-01-05T07:09:59.333Z,10.86
2023-01-05T07:10:59.387Z,10.86
2023-01-05T07:11:59.343Z,10.8
2023-01-05T07:12:59.376Z,10.86
2023-01-05T07:13:59.375Z,10.89
2023-01-05T07:15:02.455Z,10.83
2023-01-05T07:15:59.553Z,10.82
2023-01-05T07:16:59.437Z,10.79
2023-01-05T07:18:02.170Z,10.8
2023-01-05T07:18:59.356Z,10.87
2023-01-05T07:19:59.376Z,10.67
2023-01-05T07:20:59.411Z,10.84
2023-01-05T07:22:01.689Z,10.8
2023-01-05T07:22:59.373Z,10.67
2023-01-05T07:23:59.373Z,10.75
2023-01-05T07:24:59.379Z,10.71
2023-01-05T07:25:59.404Z,10.8
2023-01-05T07:27:01.889Z,10.72
2023-01-05T07:27:59.391Z,10.8
2023-01-05T07:29:02.477Z,10.72
2023-01-05T07:29:59.387Z,10.69
2023-01-05T07:30:59.520Z,10.75
2023-01-05T07:31:59.511Z,10.68
2023-01-05T07:32:59.388Z,10.68
2023-01-05T07:33:59.231Z,10.71
2023-01-05T07:35:00.772Z,10.75
2023-01-05T07:35:59.439Z,10.71
2023-01-05T07:36:59.373Z,10.76
2023-01-05T07:37:59.391Z,10.71
2023-01-05T07:39:03.890Z,10.76
2023-01-05T07:40:02.413Z,10.76
2023-01-05T07:40:59.423Z,10.72
2023-01-05T07:41:59.393Z,10.75
2023-01-05T07:42:59.403Z,10.71
2023-01-05T07:43:59.374Z,10.76
2023-01-05T07:44:59.393Z,10.77
2023-01-05T07:45:59.648Z,10.69
2023-01-05T07:46:59.427Z,10.67
2023-01-05T07:47:59.414Z,10.67
2023-01-05T07:48:59.419Z,10.71
2023-01-05T07:49:59.428Z,10.67
2023-01-05T07:51:02.705Z,10.65
2023-01-05T07:51:59.413Z,10.67
2023-01-05T07:52:59.403Z,10.61
2023-01-05T07:53:59.429Z,10.71
2023-01-05T07:54:59.405Z,10.77
2023-01-05T07:55:59.441Z,10.76
2023-01-05T07:56:59.412Z,10.72
2023-01-05T07:57:59.424Z,10.71
2023-01-05T07:58:59.475Z,10.75
2023-01-05T07:59:59.452Z,10.71
2023-01-05T08:00:59.619Z,10.62
2023-01-05T08:02:03.145Z,10.77
2023-01-05T08:02:59.603Z,10.75
2023-01-05T08:03:59.591Z,10.75
2023-01-05T08:04:59.440Z,10.67
2023-01-05T08:05:59.433Z,10.68
2023-01-05T08:06:59.448Z,10.68
2023-01-05T08:07:59.449Z,10.75
2023-01-05T08:08:59.447Z,10.71
2023-01-05T08:09:59.457Z,10.77
2023-01-05T08:10:59.454Z,10.8
2023-01-05T08:11:59.465Z,10.82
2023-01-05T08:13:06.638Z,10.83
2023-01-05T08:13:59.459Z,10.83
2023-01-05T08:14:59.475Z,10.8
2023-01-05T08:15:59.444Z,10.8
2023-01-05T08:16:59.750Z,10.86
2023-01-05T08:17:59.481Z,10.87
2023-01-05T08:18:59.489Z,10.9
2023-01-05T08:19:59.455Z,10.86
2023-01-05T08:20:59.487Z,10.86
2023-01-05T08:21:59.497Z,10.9
2023-01-05T08:22:59.609Z,10.76
2023-01-05T08:24:02.599Z,10.92
2023-01-05T08:24:59.480Z,10.89
2023-01-05T08:25:59.431Z,10.89
2023-01-05T08:26:59.658Z,10.98
2023-01-05T08:27:59.523Z,10.9
2023-01-05T08:28:59.521Z,10.9
2023-01-05T08:29:59.469Z,10.9
2023-01-05T08:30:59.557Z,10.95
2023-01-05T08:31:59.695Z,10.9
2023-01-05T08:32:59.306Z,11
2023-01-05T08:33:59.592Z,10.94
2023-01-05T08:35:03.548Z,10.94
2023-01-05T08:35:59.473Z,11.05
2023-01-05T08:36:59.518Z,10.98
2023-01-05T08:37:59.491Z,10.94
2023-01-05T08:38:59.480Z,10.9
2023-01-05T08:40:02.700Z,10.97
2023-01-05T08:40:59.496Z,11.01
2023-01-05T08:42:06.640Z,11.01
2023-01-05T08:42:59.484Z,11.02
2023-01-05T08:43:59.342Z,11.07
2023-01-05T08:44:59.515Z,11.12
2023-01-05T08:45:59.692Z,11.02
2023-01-05T08:46:59.529Z,11.12
2023-01-05T08:47:59.503Z,11.05
2023-01-05T08:48:59.497Z,11.07
2023-01-05T08:49:59.551Z,11.19
2023-01-05T08:50:59.509Z,11.08
2023-01-05T08:51:59.509Z,11.05
2023-01-05T08:52:59.608Z,11.07
2023-01-05T08:53:59.540Z,11.2
2023-01-05T08:54:59.532Z,11.16
2023-01-05T08:55:59.553Z,11.18
2023-01-05T08:56:59.526Z,11.12
2023-01-05T08:57:59.545Z,11.1
2023-01-05T08:58:59.530Z,11.23
2023-01-05T08:59:59.518Z,11.22
2023-01-05T09:00:59.872Z,11.27
2023-01-05T09:02:00.137Z,11.16
2023-01-05T09:02:59.997Z,11.23
2023-01-05T09:03:59.558Z,11.2
2023-01-05T09:04:59.551Z,11.22
2023-01-05T09:05:59.539Z,11.34
2023-01-05T09:07:02.662Z,11.23
2023-01-05T09:07:59.603Z,11.33
2023-01-05T09:08:59.766Z,11.22
2023-01-05T09:09:59.618Z,11.33
2023-01-05T09:10:59.552Z,11.3
2023-01-05T09:11:59.577Z,11.33
2023-01-05T09:12:59.561Z,11.25
2023-01-05T09:13:59.579Z,11.25
2023-01-05T09:14:59.543Z,11.25
2023-01-05T09:15:59.573Z,11.35
2023-01-05T09:17:12.225Z,11.4
2023-01-05T09:18:02.820Z,11.33
2023-01-05T09:18:59.543Z,11.35
2023-01-05T09:19:59.554Z,11.4
2023-01-05T09:20:59.570Z,11.38
2023-01-05T09:21:59.615Z,11.34
2023-01-05T09:23:02.412Z,11.22
2023-01-05T09:23:59.590Z,11.44
2023-01-05T09:24:59.583Z,11.33
2023-01-05T09:25:59.609Z,11.43
2023-01-05T09:26:59.573Z,11.4
2023-01-05T09:27:59.596Z,11.44
2023-01-05T09:29:02.351Z,11.43
2023-01-05T09:29:59.587Z,11.43
2023-01-05T09:30:59.730Z,11.4
2023-01-05T09:31:59.585Z,11.55
2023-01-05T09:32:59.587Z,11.51
2023-01-05T09:34:02.367Z,11.52
2023-01-05T09:34:59.598Z,11.7
2023-01-05T09:35:59.616Z,11.67
2023-01-05T09:36:59.593Z,11.78
2023-01-05T09:37:59.722Z,11.77
2023-01-05T09:38:59.597Z,11.8
2023-01-05T09:40:02.616Z,11.83
2023-01-05T09:40:59.617Z,11.85
2023-01-05T09:41:59.608Z,11.85
2023-01-05T09:42:59.600Z,11.86
2023-01-05T09:43:59.613Z,11.85
2023-01-05T09:45:04.106Z,11.8
2023-01-05T09:46:00.120Z,11.78
2023-01-05T09:46:59.637Z,11.74
2023-01-05T09:47:59.457Z,11.73
2023-01-05T09:48:59.606Z,11.71
2023-01-05T09:49:59.603Z,11.73
2023-01-05T09:50:59.659Z,11.68
2023-01-05T09:51:59.602Z,11.65
2023-01-05T09:52:59.629Z,11.7
2023-01-05T09:53:59.731Z,11.73
2023-01-05T09:54:59.618Z,11.77
2023-01-05T09:56:02.584Z,11.71
2023-01-05T09:57:15.808Z,11.73
2023-01-05T09:57:59.616Z,11.7
2023-01-05T09:58:59.644Z,11.77
2023-01-05T09:59:59.729Z,11.83
2023-01-05T10:00:59.615Z,11.85
2023-01-05T10:01:59.663Z,11.83
2023-01-05T10:02:59.829Z,11.86
2023-01-05T10:04:08.753Z,12.03
2023-01-05T10:05:00.185Z,11.95
2023-01-05T10:05:59.779Z,11.81
2023-01-05T10:07:02.511Z,11.89
2023-01-05T10:07:59.635Z,11.99
2023-01-05T10:08:59.618Z,11.97
2023-01-05T10:09:59.780Z,12
2023-01-05T10:10:59.637Z,12.11
2023-01-05T10:11:59.794Z,12.12
2023-01-05T10:12:59.626Z,12.23
2023-01-05T10:13:59.626Z,12.2
2023-01-05T10:14:59.631Z,12.25
2023-01-05T10:15:59.985Z,12.25
2023-01-05T10:17:45.125Z,12.17
2023-01-05T10:18:02.443Z,12.18
2023-01-05T10:18:59.672Z,12.17
2023-01-05T10:19:59.660Z,12.07
2023-01-05T10:20:59.704Z,12.26
2023-01-05T10:21:59.691Z,12
2023-01-05T10:22:59.648Z,12.21
2023-01-05T10:23:59.640Z,11.97
2023-01-05T10:24:59.726Z,12.14
2023-01-05T10:26:01.028Z,12.2
2023-01-05T10:27:29.835Z,12.33
2023-01-05T10:28:01.712Z,12.29
2023-01-05T10:29:02.685Z,12.18
2023-01-05T10:29:59.651Z,12.3
2023-01-05T10:30:59.845Z,12.25
2023-01-05T10:31:59.816Z,12.21
2023-01-05T10:33:40.511Z,12.3
2023-01-05T10:34:18.263Z,12.39
2023-01-05T10:35:34.153Z,12.43
2023-01-05T10:37:17.388Z,12.43
2023-01-05T10:38:17.494Z,12.39
2023-01-05T10:39:17.494Z,12.37
2023-01-05T10:40:17.391Z,12.62
2023-01-05T10:41:17.477Z,12.63
2023-01-05T10:42:17.394Z,12.65
2023-01-05T10:43:17.494Z,12.58
2023-01-05T10:44:17.387Z,12.55
2023-01-05T10:45:17.402Z,12.66
2023-01-05T10:46:50.433Z,12.63
2023-01-05T10:47:17.583Z,12.45
2023-01-05T10:48:17.419Z,12.58
2023-01-05T10:49:17.370Z,12.57
2023-01-05T10:50:17.416Z,12.51
2023-01-05T10:51:17.402Z,12.45
2023-01-05T10:52:17.405Z,12.61
2023-01-05T10:53:17.428Z,12.45
2023-01-05T10:54:17.370Z,12.45
2023-01-05T10:55:17.392Z,12.33
2023-01-05T10:56:17.385Z,12.37
2023-01-05T10:57:20.482Z,12.44
2023-01-05T10:58:17.360Z,12.48
2023-01-05T10:59:17.843Z,12.47
2023-01-05T11:00:17.488Z,12.44
2023-01-05T11:01:17.807Z,12.54
2023-01-05T11:02:17.770Z,12.45
2023-01-05T11:03:17.735Z,12.39
2023-01-05T11:04:40.565Z,12.51
2023-01-05T11:05:38.767Z,12.44
2023-01-05T11:06:38.432Z,12.43
2023-01-05T11:07:38.402Z,12.44
2023-01-05T11:08:38.385Z,12.43
2023-01-05T11:09:38.407Z,12.55
2023-01-05T11:10:41.396Z,12.58
2023-01-05T11:11:38.522Z,12.36
2023-01-05T11:12:38.573Z,12.43
2023-01-05T11:13:38.445Z,12.36
2023-01-05T11:14:38.520Z,12.4
2023-01-05T11:15:38.588Z,12.44
2023-01-05T11:16:38.412Z,12.44
2023-01-05T11:17:38.429Z,12.36
2023-01-05T11:18:38.535Z,12.37
2023-01-05T11:19:38.501Z,12.44
2023-01-05T11:20:38.438Z,12.37
2023-01-05T11:21:41.370Z,12.37
2023-01-05T11:22:38.484Z,12.45
2023-01-05T11:23:38.426Z,12.37
2023-01-05T11:24:38.422Z,12.4
2023-01-05T11:25:38.430Z,12.36
2023-01-05T11:26:41.543Z,12.43
2023-01-05T11:27:38.430Z,12.3
2023-01-05T11:28:38.588Z,12.35
2023-01-05T11:29:38.429Z,12.43
2023-01-05T11:30:38.703Z,12.37
2023-01-05T11:31:38.674Z,12.43
2023-01-05T11:32:41.257Z,12.32
2023-01-05T11:33:38.414Z,12.35
2023-01-05T11:34:38.623Z,12.26
2023-01-05T11:35:38.459Z,12.33
2023-01-05T11:36:38.447Z,12.23
2023-01-05T11:37:39.191Z,12.29
2023-01-05T11:38:38.453Z,12.3
2023-01-05T11:39:38.454Z,12.3
2023-01-05T11:40:38.455Z,12.26
2023-01-05T11:41:38.462Z,12.26
2023-01-05T11:42:38.561Z,12.26
2023-01-05T11:43:41.287Z,12.28
2023-01-05T11:44:38.589Z,12.36
2023-01-05T11:45:38.492Z,12.33
2023-01-05T11:46:38.753Z,12.37
2023-01-05T11:47:47.137Z,12.36
2023-01-05T11:48:41.518Z,12.32
2023-01-05T11:49:38.469Z,12.25
2023-01-05T11:50:38.577Z,12.21
2023-01-05T11:51:38.476Z,12.29
2023-01-05T11:52:38.445Z,12.23
2023-01-05T11:53:38.504Z,12.2
2023-01-05T11:54:38.484Z,12.2
2023-01-05T11:55:38.649Z,12.14
2023-01-05T11:56:38.476Z,12.21
2023-01-05T11:57:38.473Z,12.14
2023-01-05T11:58:38.487Z,12.25
2023-01-05T11:59:41.377Z,12.15
2023-01-05T12:00:38.765Z,12.3
2023-01-05T12:01:38.727Z,12.33
2023-01-05T12:02:38.943Z,12.32
2023-01-05T12:03:38.720Z,12.29
2023-01-05T12:04:38.531Z,12.4
2023-01-05T12:05:38.514Z,12.4
2023-01-05T12:06:38.630Z,12.44
2023-01-05T12:07:38.551Z,12.53
2023-01-05T12:08:38.514Z,12.57
2023-01-05T12:09:40.450Z,12.63
2023-01-05T12:10:38.504Z,12.83
2023-01-05T12:11:38.507Z,12.72
2023-01-05T12:12:38.496Z,12.72
2023-01-05T12:13:38.553Z,12.7
2023-01-05T12:14:38.519Z,12.86
2023-01-05T12:15:38.627Z,12.72
2023-01-05T12:16:38.728Z,12.76
2023-01-05T12:17:38.563Z,12.73
2023-01-05T12:18:38.651Z,12.7
2023-01-05T12:19:38.502Z,12.68
2023-01-05T12:20:38.521Z,12.73
2023-01-05T12:21:38.532Z,12.86
2023-01-05T12:22:38.672Z,12.78
2023-01-05T12:23:38.592Z,12.81
2023-01-05T12:24:38.564Z,12.83
2023-01-05T12:25:38.507Z,12.83
2023-01-05T12:26:38.536Z,12.63
2023-01-05T12:27:38.518Z,12.65
2023-01-05T12:28:48.546Z,12.83
2023-01-05T12:34:18.374Z,12.9
2023-01-05T12:35:16.244Z,12.9
2023-01-05T12:36:13.382Z,12.81
2023-01-05T12:37:13.412Z,12.94
2023-01-05T12:38:13.510Z,12.9
2023-01-05T12:39:13.446Z,12.8
2023-01-05T12:40:13.548Z,12.84
2023-01-05T12:41:16.410Z,12.93
2023-01-05T12:42:13.374Z,12.87
2023-01-05T12:43:13.394Z,12.72
2023-01-05T12:44:13.401Z,12.73
2023-01-05T12:45:13.374Z,12.87
2023-01-05T12:46:16.236Z,12.84
2023-01-05T12:47:13.656Z,12.86
2023-01-05T12:48:13.391Z,12.72
2023-01-05T12:49:13.436Z,12.7
2023-01-05T12:50:13.536Z,12.73
2023-01-05T12:51:13.432Z,12.7
2023-01-05T12:52:13.417Z,12.78
2023-01-05T12:53:13.438Z,12.68
2023-01-05T12:54:13.557Z,12.76
2023-01-05T12:55:13.392Z,12.63
2023-01-05T12:56:13.398Z,12.75
2023-01-05T12:57:16.302Z,12.68
2023-01-05T12:58:13.423Z,12.63
2023-01-05T12:59:13.435Z,12.69
2023-01-05T13:00:13.484Z,12.66
2023-01-05T13:01:13.798Z,12.65
2023-01-05T13:02:13.845Z,12.62
2023-01-05T13:03:13.585Z,12.54